KSTJ/STJ METAR and TAF weather

Enter ICAO airport designator
Station Type Date Time Source
KSTJ METAR 2019/07/15 19:53 UTC NOAA

KSTJ 151953Z 12010KT 10SM SCT042 29/19 A2994 RMK AO2 SLP128 T02940194


Station Type Date Time Source
KSTJ Decoded METAR 2019/07/15 19:53 UTC NOAA

ROSECRANS MEMORIAL AIRPORT, MO, United States (KSTJ) 39-46N 94-55W 247M
Jul 15, 2019 - 03:53 PM EDT / 2019.07.15 1953 UTC
Wind: from the ESE (120 degrees) at 12 MPH (10 KT):0
Visibility: 10 mile(s):0
Sky conditions: partly cloudy
Temperature: 84.9 F (29.4 C)
Dew Point: 66.9 F (19.4 C)
Relative Humidity: 54%
Pressure (altimeter): 29.94 in. Hg (1013 hPa)
ob: KSTJ 151953Z 12010KT 10SM SCT042 29/19 A2994 RMK AO2 SLP128 T02940194
cycle: 20

Station Type Date Time Source
KSTJ TAF 2019/07/15 18:36 UTC NOAA

TAF KSTJ 151733Z 1518/1618 13008KT P6SM SCT025
FM160200 08005KT P6SM SCT035
FM160800 04004KT P6SM BKN008
FM161000 VRB03KT 3SM BR OVC005
FM161400 04004KT P6SM BKN020

Example: see airport list